Time;durP1;ratioP1;P1;durP2;ratioP2;P2;SDS_P1;SDS_P2;PMS_P1;PMS_P2;Temp;Humidity;BMP_temperature;BMP_pressure;BME280_temperature;BME280_humidity;BME280_pressure;Samples;Min_cycle;Max_cycle;Signal;HPM_P1;HPM_P2
2023/10/31 00:00:20;;;;;;;1.60;1.10;;;12.40;98.20;;;;;;4986137;28;20485;-87
2023/10/31 00:02:50;;;;;;;1.60;1.20;;;12.40;98.20;;;;;;4993373;28;20714;-87
2023/10/31 00:05:21;;;;;;;1.60;1.10;;;12.40;98.20;;;;;;4992077;28;20509;-84
2023/10/31 00:07:49;;;;;;;1.60;1.10;;;12.40;98.20;;;;;;4993922;28;20487;-86
2023/10/31 00:10:16;;;;;;;1.60;1.10;;;12.30;98.20;;;;;;4989248;28;20552;-86
2023/10/31 00:12:43;;;;;;;1.60;1.00;;;12.30;98.20;;;;;;4997636;28;20596;-87
2023/10/31 00:15:10;;;;;;;1.60;1.00;;;12.30;98.20;;;;;;4996161;28;20883;-83
2023/10/31 00:17:37;;;;;;;1.60;1.10;;;12.30;98.20;;;;;;4985011;28;20491;-86
2023/10/31 00:20:05;;;;;;;1.60;1.10;;;12.30;98.20;;;;;;4990282;28;20932;-85
2023/10/31 00:22:32;;;;;;;1.60;1.00;;;12.20;98.20;;;;;;4985091;28;20488;-84
2023/10/31 00:25:00;;;;;;;1.60;1.00;;;12.30;98.20;;;;;;4990002;28;20464;-86
2023/10/31 00:27:29;;;;;;;1.60;1.00;;;12.20;98.20;;;;;;4987279;28;20484;-85
2023/10/31 00:29:56;;;;;;;1.60;1.00;;;12.20;98.20;;;;;;4986239;28;20477;-87
2023/10/31 00:32:26;;;;;;;1.60;1.10;;;12.30;98.20;;;;;;4987090;28;20481;-85
2023/10/31 00:34:55;;;;;;;1.60;1.03;;;12.20;98.20;;;;;;4995847;28;20462;-87
2023/10/31 00:37:25;;;;;;;1.60;1.00;;;12.20;98.20;;;;;;4990855;28;20630;-86
2023/10/31 00:39:51;;;;;;;1.60;1.10;;;12.20;98.20;;;;;;4981958;28;20569;-87
2023/10/31 00:42:21;;;;;;;1.60;1.00;;;12.20;98.20;;;;;;4983321;28;20871;-86
2023/10/31 00:44:48;;;;;;;1.60;1.00;;;12.20;98.20;;;;;;5002247;28;20569;-85
2023/10/31 00:47:23;;;;;;;1.60;1.00;;;12.20;98.20;;;;;;4988308;28;20483;-87
2023/10/31 00:49:49;;;;;;;1.60;1.00;;;12.20;98.20;;;;;;4975940;28;20484;-86
2023/10/31 00:52:16;;;;;;;1.60;1.00;;;12.20;98.20;;;;;;4989335;28;20561;-86
2023/10/31 00:54:43;;;;;;;1.60;1.10;;;12.10;98.20;;;;;;4993194;28;20530;-87
2023/10/31 00:57:09;;;;;;;1.60;1.00;;;12.10;98.20;;;;;;4990965;28;20550;-86
2023/10/31 00:59:37;;;;;;;1.60;1.00;;;12.10;98.20;;;;;;4980549;28;21007;-85
2023/10/31 01:02:04;;;;;;;1.60;1.10;;;12.10;98.20;;;;;;4978832;28;20229;-86
2023/10/31 01:04:31;;;;;;;1.60;1.10;;;12.10;98.20;;;;;;4993648;28;20474;-88
2023/10/31 01:06:58;;;;;;;1.60;1.20;;;12.10;98.20;;;;;;4978437;28;20538;-85
2023/10/31 01:09:25;;;;;;;1.60;1.10;;;12.10;98.20;;;;;;4978634;28;20485;-87
2023/10/31 01:11:52;;;;;;;1.60;1.00;;;12.10;98.20;;;;;;4979744;28;20477;-84
2023/10/31 01:14:18;;;;;;;1.60;1.10;;;12.10;98.20;;;;;;4997868;28;20495;-86
2023/10/31 01:16:50;;;;;;;1.60;1.10;;;12.10;98.20;;;;;;4979151;28;20535;-86
2023/10/31 01:19:19;;;;;;;1.60;1.10;;;12.10;98.20;;;;;;4997630;28;20549;-87
2023/10/31 01:21:45;;;;;;;1.60;1.10;;;12.00;98.20;;;;;;4974632;28;20518;-87
2023/10/31 01:24:12;;;;;;;1.60;1.00;;;12.00;98.20;;;;;;4989155;28;20536;-87
2023/10/31 01:26:45;;;;;;;1.60;1.10;;;12.00;98.20;;;;;;4983144;28;20564;-86
2023/10/31 01:29:12;;;;;;;1.60;1.10;;;12.00;98.20;;;;;;4980264;28;20488;-87
2023/10/31 01:31:41;;;;;;;1.60;1.10;;;11.90;98.20;;;;;;4983744;28;20481;-86
2023/10/31 01:34:22;;;;;;;1.60;1.00;;;11.90;98.20;;;;;;4989206;28;20463;-88
2023/10/31 01:36:49;;;;;;;1.60;1.10;;;11.90;98.20;;;;;;4978892;28;20480;-85
2023/10/31 01:39:16;;;;;;;1.60;1.10;;;11.90;98.20;;;;;;4980513;28;20481;-86
2023/10/31 01:41:43;;;;;;;1.60;1.03;;;11.80;98.20;;;;;;4976526;28;20485;-84
2023/10/31 01:44:09;;;;;;;1.60;1.10;;;11.80;98.20;;;;;;4995518;28;20462;-87
2023/10/31 01:46:36;;;;;;;1.60;1.10;;;11.80;98.20;;;;;;4981833;28;20712;-88
2023/10/31 01:49:03;;;;;;;1.60;1.10;;;11.70;98.20;;;;;;4990406;28;20484;-84
2023/10/31 01:51:32;;;;;;;1.60;1.10;;;11.70;98.20;;;;;;4982267;28;21145;-86
2023/10/31 01:53:59;;;;;;;1.60;1.10;;;11.70;98.20;;;;;;4985364;28;20835;-85
2023/10/31 01:56:26;;;;;;;1.60;1.00;;;11.70;98.20;;;;;;4972892;28;20487;-86
2023/10/31 01:58:54;;;;;;;1.60;1.10;;;11.70;98.20;;;;;;4989174;28;20466;-86
2023/10/31 02:01:21;;;;;;;1.60;1.10;;;11.70;98.20;;;;;;4979725;28;20964;-85
2023/10/31 02:03:49;;;;;;;1.60;1.10;;;11.70;98.20;;;;;;5002139;28;20469;-88
2023/10/31 02:06:16;;;;;;;1.60;1.10;;;11.70;98.20;;;;;;4977025;28;20483;-87
2023/10/31 02:08:47;;;;;;;1.60;1.00;;;11.70;98.20;;;;;;4989086;28;20533;-86
2023/10/31 02:11:13;;;;;;;1.60;1.10;;;11.70;98.20;;;;;;4973924;28;20864;-86
2023/10/31 02:13:40;;;;;;;1.60;1.00;;;11.60;98.20;;;;;;4999134;28;20471;-87
2023/10/31 02:16:08;;;;;;;1.60;1.10;;;11.60;98.20;;;;;;4973771;28;20474;-86
2023/10/31 02:18:34;;;;;;;1.60;1.03;;;11.60;98.20;;;;;;4994485;28;20572;-85
2023/10/31 02:21:01;;;;;;;1.60;1.00;;;11.60;98.20;;;;;;4975257;28;20490;-86
2023/10/31 02:23:28;;;;;;;1.87;1.67;;;11.60;98.20;;;;;;4994336;28;20796;-87
2023/10/31 02:25:55;;;;;;;1.60;1.00;;;11.60;98.20;;;;;;4973413;28;20481;-85
2023/10/31 02:28:22;;;;;;;1.60;1.00;;;11.60;98.20;;;;;;4993078;28;20980;-86
2023/10/31 02:30:49;;;;;;;1.60;1.10;;;11.60;98.20;;;;;;4963416;28;20892;-86
2023/10/31 02:33:16;;;;;;;1.60;1.00;;;11.60;98.20;;;;;;5006136;28;20457;-87
2023/10/31 02:35:43;;;;;;;1.60;1.20;;;11.60;98.20;;;;;;4990440;28;20462;-84
2023/10/31 02:38:09;;;;;;;1.60;1.10;;;11.60;98.20;;;;;;4990126;28;20485;-87
2023/10/31 02:40:37;;;;;;;1.60;1.07;;;11.60;98.20;;;;;;4984652;28;20482;-87
2023/10/31 02:43:04;;;;;;;1.60;1.00;;;11.60;98.20;;;;;;4993208;28;20988;-87
2023/10/31 02:45:31;;;;;;;1.60;1.10;;;11.60;98.20;;;;;;4994494;28;20464;-88
2023/10/31 02:47:58;;;;;;;1.60;1.10;;;11.60;98.20;;;;;;4988707;28;20480;-87
2023/10/31 02:50:25;;;;;;;1.60;1.00;;;11.60;98.20;;;;;;4991385;28;20519;-87
2023/10/31 02:52:51;;;;;;;1.60;1.00;;;11.60;98.20;;;;;;4988744;28;20476;-86
2023/10/31 02:55:18;;;;;;;1.60;1.20;;;11.60;98.20;;;;;;4998065;28;20473;-87
2023/10/31 02:57:46;;;;;;;1.60;1.10;;;11.60;98.20;;;;;;4990772;28;20476;-85
2023/10/31 03:00:14;;;;;;;1.60;1.00;;;11.60;98.20;;;;;;4987778;28;20483;-86
2023/10/31 03:02:41;;;;;;;1.60;1.10;;;11.60;98.20;;;;;;4994448;28;20483;-87
2023/10/31 03:05:08;;;;;;;1.60;1.10;;;11.60;98.20;;;;;;4989870;28;20466;-87
2023/10/31 03:07:35;;;;;;;2.93;2.60;;;11.60;98.20;;;;;;4991517;28;20476;-87
2023/10/31 03:10:03;;;;;;;1.60;1.10;;;11.60;98.20;;;;;;5011549;23;20546;-80
2023/10/31 03:12:30;;;;;;;1.60;1.10;;;11.60;98.20;;;;;;5003399;28;20482;-80
2023/10/31 03:14:58;;;;;;;1.60;1.20;;;11.50;98.20;;;;;;5011972;28;20463;-80
2023/10/31 03:17:25;;;;;;;1.60;1.10;;;11.50;98.20;;;;;;5002027;28;20479;-80
2023/10/31 03:19:52;;;;;;;1.60;1.10;;;11.50;98.20;;;;;;4999234;28;20476;-80
2023/10/31 03:22:18;;;;;;;1.60;1.20;;;11.50;98.20;;;;;;4994162;28;20487;-80
2023/10/31 03:24:45;;;;;;;1.60;1.20;;;11.40;98.20;;;;;;5013172;28;20473;-80
2023/10/31 03:27:12;;;;;;;1.60;1.20;;;11.40;98.20;;;;;;5013736;28;20488;-80
2023/10/31 03:29:39;;;;;;;1.60;1.00;;;11.40;98.20;;;;;;5012328;28;20488;-80
2023/10/31 03:32:07;;;;;;;1.60;1.10;;;11.30;98.20;;;;;;5011158;28;20882;-80
2023/10/31 03:34:34;;;;;;;1.60;1.10;;;11.30;98.20;;;;;;5020171;28;20468;-80
2023/10/31 03:37:01;;;;;;;1.60;1.20;;;11.30;98.20;;;;;;5008049;28;21000;-80
2023/10/31 03:39:27;;;;;;;1.60;1.17;;;11.30;98.20;;;;;;5009861;28;20476;-80
2023/10/31 03:41:54;;;;;;;1.60;1.10;;;11.30;98.20;;;;;;5004204;28;20529;-79
2023/10/31 03:44:21;;;;;;;1.60;1.10;;;11.20;98.20;;;;;;5010255;28;20472;-80
2023/10/31 03:46:48;;;;;;;1.60;1.10;;;11.30;98.20;;;;;;4989682;28;20491;-80
2023/10/31 03:49:16;;;;;;;1.60;1.10;;;11.30;98.20;;;;;;5006078;28;20527;-80
2023/10/31 03:51:42;;;;;;;1.60;1.10;;;11.30;98.20;;;;;;5004259;28;20483;-80
2023/10/31 03:54:09;;;;;;;1.60;1.10;;;11.30;98.20;;;;;;5015420;28;20927;-80
2023/10/31 03:56:40;;;;;;;1.60;1.10;;;11.30;98.20;;;;;;4994274;28;20488;-80
2023/10/31 03:59:07;;;;;;;1.60;1.10;;;11.30;98.20;;;;;;5004993;28;20504;-80
2023/10/31 04:01:34;;;;;;;1.60;1.10;;;11.40;98.20;;;;;;4991950;28;20475;-79
2023/10/31 04:04:01;;;;;;;1.60;1.10;;;11.40;98.20;;;;;;5001635;28;21018;-80
2023/10/31 04:06:29;;;;;;;2.20;1.73;;;11.40;98.20;;;;;;4994489;28;20484;-80
2023/10/31 04:08:56;;;;;;;1.60;1.10;;;11.40;98.20;;;;;;5004072;28;20971;-80
2023/10/31 04:11:23;;;;;;;1.60;1.10;;;11.40;98.20;;;;;;5006650;28;20479;-80
2023/10/31 04:13:50;;;;;;;1.60;1.10;;;11.40;98.20;;;;;;5011449;28;20492;-80
2023/10/31 04:16:17;;;;;;;1.60;1.10;;;11.40;98.20;;;;;;5003124;28;20487;-80
2023/10/31 04:18:44;;;;;;;1.60;1.00;;;11.40;98.20;;;;;;5014453;28;20465;-80
2023/10/31 04:21:11;;;;;;;1.60;1.10;;;11.40;98.20;;;;;;4998403;28;21155;-80
2023/10/31 04:23:39;;;;;;;1.60;1.00;;;11.50;98.20;;;;;;5022848;28;20519;-81
2023/10/31 04:26:06;;;;;;;1.60;1.10;;;11.50;98.20;;;;;;4999592;28;20843;-80
2023/10/31 04:28:32;;;;;;;1.60;1.00;;;11.50;98.20;;;;;;5019479;28;20951;-79
2023/10/31 04:30:59;;;;;;;1.60;1.20;;;11.50;98.20;;;;;;4993902;28;20499;-80
2023/10/31 04:33:26;;;;;;;1.60;1.20;;;11.50;98.20;;;;;;5017615;28;20543;-80
2023/10/31 04:35:52;;;;;;;1.60;1.20;;;11.50;98.20;;;;;;4996041;28;20464;-80
2023/10/31 04:38:19;;;;;;;1.60;1.07;;;11.50;98.20;;;;;;5013316;28;20844;-80
2023/10/31 04:40:47;;;;;;;1.60;1.10;;;11.50;98.20;;;;;;5000137;28;20496;-80
2023/10/31 04:43:14;;;;;;;1.60;1.00;;;11.50;98.20;;;;;;4990305;28;20500;-79
2023/10/31 04:45:42;;;;;;;1.60;1.10;;;11.50;98.20;;;;;;5010629;28;20460;-80
2023/10/31 04:48:08;;;;;;;1.60;1.10;;;11.50;98.20;;;;;;5008465;28;20851;-79
2023/10/31 04:50:35;;;;;;;1.60;1.10;;;11.60;98.20;;;;;;5002552;28;20480;-80
2023/10/31 04:53:02;;;;;;;1.60;1.10;;;11.60;98.20;;;;;;5006684;28;20475;-80
2023/10/31 04:55:28;;;;;;;1.60;1.23;;;11.60;98.20;;;;;;5004068;28;20968;-80
2023/10/31 04:57:57;;;;;;;1.60;1.10;;;11.60;98.20;;;;;;5012040;28;20556;-80
2023/10/31 05:00:24;;;;;;;1.60;1.17;;;11.60;98.20;;;;;;5001924;28;20484;-80
2023/10/31 05:02:50;;;;;;;1.60;1.10;;;11.60;98.20;;;;;;5009132;28;20486;-82
2023/10/31 05:05:17;;;;;;;1.60;1.10;;;11.60;98.20;;;;;;5003393;28;20470;-82
2023/10/31 05:07:44;;;;;;;1.60;1.10;;;11.60;98.20;;;;;;5007209;28;20479;-80
2023/10/31 05:10:11;;;;;;;1.60;1.10;;;11.60;98.20;;;;;;5000748;28;20503;-81
2023/10/31 05:12:37;;;;;;;1.60;1.10;;;11.60;98.20;;;;;;5007899;28;20472;-80
2023/10/31 05:15:07;;;;;;;1.60;1.00;;;11.60;98.20;;;;;;5002362;28;20468;-81
2023/10/31 05:17:34;;;;;;;1.60;1.00;;;11.60;98.20;;;;;;5005822;28;20494;-78
2023/10/31 05:20:01;;;;;;;1.60;1.10;;;11.60;98.20;;;;;;4999513;28;20560;-81
2023/10/31 05:22:28;;;;;;;1.53;1.00;;;11.60;98.20;;;;;;4990747;28;20503;-81
2023/10/31 05:24:55;;;;;;;1.60;1.10;;;11.60;98.20;;;;;;5008196;28;20475;-83
2023/10/31 05:27:21;;;;;;;1.60;1.00;;;11.60;98.20;;;;;;4998558;28;20475;-81
2023/10/31 05:29:48;;;;;;;1.60;1.10;;;11.70;98.20;;;;;;4998922;28;20484;-82
2023/10/31 05:32:16;;;;;;;1.60;1.10;;;11.60;98.20;;;;;;4991835;28;20467;-81
2023/10/31 05:34:43;;;;;;;1.60;1.10;;;11.60;98.20;;;;;;5000740;28;20517;-80
2023/10/31 05:37:10;;;;;;;1.60;1.10;;;11.60;98.20;;;;;;5006564;28;20485;-81
2023/10/31 05:39:37;;;;;;;1.60;1.03;;;11.60;98.20;;;;;;5002634;28;20644;-81
2023/10/31 05:42:04;;;;;;;1.60;1.10;;;11.60;98.20;;;;;;4997995;28;20494;-81
2023/10/31 05:44:31;;;;;;;1.60;1.10;;;11.60;98.20;;;;;;5009837;28;20560;-81
2023/10/31 05:46:58;;;;;;;1.60;1.07;;;11.60;98.20;;;;;;4999938;28;20491;-80
2023/10/31 05:49:26;;;;;;;1.60;1.10;;;11.60;98.20;;;;;;5004922;28;20484;-80
2023/10/31 05:51:53;;;;;;;1.60;1.10;;;11.60;98.20;;;;;;4990846;28;20476;-81
2023/10/31 05:54:20;;;;;;;1.60;1.10;;;11.60;98.20;;;;;;5007189;28;20453;-81
2023/10/31 05:56:48;;;;;;;1.60;1.17;;;11.60;98.20;;;;;;4998733;28;20480;-80
2023/10/31 05:59:14;;;;;;;1.57;1.00;;;11.60;98.20;;;;;;5011871;28;20528;-81
2023/10/31 06:01:41;;;;;;;1.60;1.23;;;11.60;98.20;;;;;;5001548;28;20487;-82
2023/10/31 06:04:08;;;;;;;1.60;1.00;;;11.60;98.20;;;;;;5002022;28;20489;-81
2023/10/31 06:06:39;;;;;;;1.60;1.10;;;11.60;98.20;;;;;;4987210;28;20469;-80
2023/10/31 06:09:06;;;;;;;1.60;1.00;;;11.60;98.20;;;;;;4999501;28;20463;-80
2023/10/31 06:11:32;;;;;;;1.60;1.10;;;11.60;98.20;;;;;;5003677;28;20502;-81
2023/10/31 06:14:00;;;;;;;1.60;1.00;;;11.70;98.20;;;;;;5012999;28;20461;-79
2023/10/31 06:16:26;;;;;;;1.60;1.10;;;11.70;98.20;;;;;;4987893;28;20484;-81
2023/10/31 06:18:53;;;;;;;1.60;1.00;;;11.70;98.20;;;;;;5000186;28;20503;-80
2023/10/31 06:21:20;;;;;;;1.60;1.07;;;11.60;98.20;;;;;;4982614;28;20477;-79
2023/10/31 06:23:48;;;;;;;1.60;1.00;;;11.60;98.20;;;;;;5000384;28;20611;-80
2023/10/31 06:26:15;;;;;;;1.60;1.10;;;11.60;98.20;;;;;;4989861;28;20492;-80
2023/10/31 06:28:42;;;;;;;1.60;1.07;;;11.60;98.20;;;;;;5010775;28;20475;-82
2023/10/31 06:31:09;;;;;;;1.60;1.20;;;11.60;98.20;;;;;;4994376;28;20496;-81
2023/10/31 06:33:35;;;;;;;1.60;1.00;;;11.60;98.20;;;;;;4998209;28;21441;-79
2023/10/31 06:36:03;;;;;;;1.60;1.10;;;11.60;98.20;;;;;;4984587;28;20537;-81
2023/10/31 06:38:30;;;;;;;1.60;1.10;;;11.60;98.20;;;;;;5000604;28;20489;-80
2023/10/31 06:40:58;;;;;;;1.60;1.10;;;11.60;98.20;;;;;;4982566;28;20519;-79
2023/10/31 06:43:25;;;;;;;1.60;1.03;;;11.60;98.20;;;;;;5002513;28;21054;-80
2023/10/31 06:45:52;;;;;;;1.60;1.00;;;11.60;98.20;;;;;;4976619;28;20469;-80
2023/10/31 06:48:19;;;;;;;1.60;1.10;;;11.60;98.20;;;;;;5004158;28;20471;-80
2023/10/31 06:50:46;;;;;;;1.60;1.10;;;11.60;98.20;;;;;;4984545;28;20492;-79
2023/10/31 06:53:13;;;;;;;1.60;1.10;;;11.50;98.20;;;;;;4979462;28;20481;-79
2023/10/31 06:55:39;;;;;;;1.60;1.00;;;11.60;98.20;;;;;;4989855;28;20474;-79
2023/10/31 06:58:07;;;;;;;1.60;1.00;;;11.60;98.20;;;;;;4990782;28;20508;-79
2023/10/31 07:00:34;;;;;;;1.60;1.10;;;11.60;98.20;;;;;;4993035;28;20600;-79
2023/10/31 07:03:04;;;;;;;1.60;1.10;;;11.60;98.20;;;;;;4997908;28;20880;-79
2023/10/31 07:05:31;;;;;;;1.60;1.10;;;11.60;98.20;;;;;;4991554;28;20465;-79
2023/10/31 07:07:58;;;;;;;1.60;1.07;;;11.50;98.20;;;;;;4990788;28;20481;-79
2023/10/31 07:10:25;;;;;;;1.60;1.10;;;11.50;98.20;;;;;;4995927;28;20537;-80
2023/10/31 07:12:52;;;;;;;1.60;1.00;;;11.50;98.20;;;;;;4993575;28;20476;-80
2023/10/31 07:15:20;;;;;;;1.57;1.00;;;11.50;98.20;;;;;;4993212;28;20465;-80
2023/10/31 07:17:47;;;;;;;1.60;1.03;;;11.50;98.20;;;;;;4996309;28;21188;-80
2023/10/31 07:20:14;;;;;;;1.60;1.10;;;11.50;98.20;;;;;;4992944;28;20571;-80
2023/10/31 07:22:41;;;;;;;1.60;1.10;;;11.50;98.20;;;;;;4998473;28;20484;-79
2023/10/31 07:25:08;;;;;;;1.60;1.20;;;11.50;98.20;;;;;;4988101;28;20607;-79
2023/10/31 07:27:35;;;;;;;1.60;1.10;;;11.50;98.20;;;;;;4998187;28;20491;-82
2023/10/31 07:30:04;;;;;;;1.53;1.00;;;11.50;98.20;;;;;;4991220;28;20483;-80
2023/10/31 07:32:32;;;;;;;1.60;1.00;;;11.50;98.20;;;;;;4996306;28;20491;-79
2023/10/31 07:34:59;;;;;;;1.60;1.10;;;11.50;98.20;;;;;;4992646;28;20465;-79
2023/10/31 07:37:25;;;;;;;1.60;1.07;;;11.60;98.20;;;;;;4994176;28;20496;-80
2023/10/31 07:39:52;;;;;;;1.60;1.10;;;11.60;98.20;;;;;;4991240;28;20570;-80
2023/10/31 07:42:19;;;;;;;1.60;1.10;;;11.60;98.20;;;;;;4992662;28;20483;-79
2023/10/31 07:44:46;;;;;;;1.60;1.20;;;11.60;98.20;;;;;;4999329;28;20662;-80
2023/10/31 07:47:13;;;;;;;1.60;1.10;;;11.70;98.20;;;;;;4993600;28;20480;-79
2023/10/31 07:49:41;;;;;;;1.60;1.00;;;11.80;98.20;;;;;;4997708;28;20850;-80
2023/10/31 07:52:08;;;;;;;1.60;1.10;;;11.80;98.20;;;;;;4995051;28;20507;-79
2023/10/31 07:54:34;;;;;;;1.57;1.00;;;11.80;98.20;;;;;;4995033;28;20485;-79
2023/10/31 07:57:01;;;;;;;1.60;1.10;;;11.80;98.20;;;;;;4998247;28;20508;-82
2023/10/31 07:59:28;;;;;;;1.60;1.20;;;11.80;98.20;;;;;;5001417;28;20485;-81
2023/10/31 08:01:55;;;;;;;1.60;1.00;;;11.80;98.20;;;;;;4992243;28;20986;-81
2023/10/31 08:04:21;;;;;;;1.60;1.07;;;11.90;98.20;;;;;;5001638;28;20881;-81
2023/10/31 08:06:50;;;;;;;1.60;1.10;;;12.00;98.20;;;;;;4994791;28;20487;-80
2023/10/31 08:09:17;;;;;;;1.60;1.13;;;12.00;98.20;;;;;;5001785;28;20489;-80
2023/10/31 08:11:43;;;;;;;1.60;1.00;;;12.00;98.20;;;;;;4990584;28;20940;-80
2023/10/31 08:14:11;;;;;;;1.60;1.00;;;12.10;98.20;;;;;;5004191;28;20469;-80
2023/10/31 08:16:37;;;;;;;1.60;1.10;;;12.10;98.20;;;;;;4993493;28;20579;-80
2023/10/31 08:19:04;;;;;;;1.60;1.10;;;12.10;98.20;;;;;;5004144;28;20469;-80
2023/10/31 08:21:34;;;;;;;1.60;1.10;;;12.10;98.20;;;;;;4992256;28;20544;-80
2023/10/31 08:24:03;;;;;;;1.60;1.00;;;12.20;98.20;;;;;;5003067;28;20546;-81
2023/10/31 08:26:31;;;;;;;1.60;1.10;;;12.40;98.20;;;;;;4985647;28;20484;-80
2023/10/31 08:28:57;;;;;;;1.60;1.00;;;12.40;98.20;;;;;;4994917;28;20473;-81
2023/10/31 08:31:42;;;;;;;1.60;1.10;;;12.40;98.20;;;;;;4990660;28;20473;-81
2023/10/31 08:34:10;;;;;;;1.57;1.00;;;12.40;98.20;;;;;;5005997;28;20468;-81
2023/10/31 08:36:37;;;;;;;1.60;1.10;;;12.40;98.20;;;;;;4991368;28;20922;-80
2023/10/31 08:39:05;;;;;;;1.60;1.10;;;12.40;98.20;;;;;;4998681;28;20468;-78
2023/10/31 08:41:32;;;;;;;1.60;1.00;;;12.40;98.20;;;;;;4987191;28;20484;-79
2023/10/31 08:43:59;;;;;;;1.60;1.10;;;12.40;98.20;;;;;;4999390;28;20489;-80
2023/10/31 08:46:26;;;;;;;1.60;1.13;;;12.50;98.20;;;;;;4986604;28;20476;-81
2023/10/31 08:48:53;;;;;;;1.60;1.10;;;12.60;98.20;;;;;;4997294;28;20470;-80
2023/10/31 08:51:20;;;;;;;1.60;1.03;;;12.60;98.20;;;;;;4985368;28;20556;-80
2023/10/31 08:53:46;;;;;;;1.60;1.10;;;12.60;98.20;;;;;;5002232;28;20478;-81
2023/10/31 08:56:15;;;;;;;1.60;1.00;;;12.70;98.20;;;;;;4981139;28;20479;-80
2023/10/31 08:58:41;;;;;;;1.90;1.40;;;12.70;98.20;;;;;;5000517;28;20467;-79
2023/10/31 09:01:08;;;;;;;1.60;1.00;;;12.70;98.20;;;;;;4977039;28;20508;-79
2023/10/31 09:03:35;;;;;;;1.60;1.00;;;12.70;98.20;;;;;;4986850;28;20464;-80
2023/10/31 09:06:02;;;;;;;1.60;1.00;;;12.70;98.20;;;;;;4979625;28;20888;-80
2023/10/31 09:08:29;;;;;;;1.60;1.07;;;12.70;98.20;;;;;;4996530;28;20970;-80
2023/10/31 09:10:56;;;;;;;1.60;1.00;;;12.70;98.20;;;;;;4980679;28;20566;-80
2023/10/31 09:13:24;;;;;;;1.60;1.00;;;12.70;98.20;;;;;;5002964;28;20465;-79
2023/10/31 09:15:51;;;;;;;1.60;1.10;;;12.70;98.20;;;;;;4982675;28;20507;-80
2023/10/31 09:18:18;;;;;;;1.60;1.10;;;12.70;98.20;;;;;;5004127;28;20468;-79
2023/10/31 09:20:45;;;;;;;1.60;1.00;;;12.80;98.20;;;;;;4990796;28;20674;-79
2023/10/31 09:23:11;;;;;;;1.60;1.00;;;12.80;98.20;;;;;;4977253;28;21079;-78
2023/10/31 09:25:38;;;;;;;1.60;1.00;;;12.90;98.20;;;;;;4990373;28;20895;-78
2023/10/31 09:28:05;;;;;;;1.60;1.07;;;13.00;98.20;;;;;;4990616;28;20480;-79
2023/10/31 09:30:34;;;;;;;1.53;0.93;;;13.10;98.20;;;;;;4986036;28;20935;-79
2023/10/31 09:33:01;;;;;;;1.60;1.03;;;13.30;98.20;;;;;;4991952;28;20563;-79
2023/10/31 09:35:28;;;;;;;1.60;1.00;;;13.50;98.20;;;;;;4988613;28;20465;-78
2023/10/31 09:37:54;;;;;;;1.60;1.00;;;13.70;98.20;;;;;;4992251;28;20475;-78
2023/10/31 09:40:21;;;;;;;1.60;1.00;;;13.80;98.20;;;;;;4988614;28;20488;-79
2023/10/31 09:42:49;;;;;;;1.60;1.00;;;13.80;98.20;;;;;;4985487;28;20497;-80
2023/10/31 09:45:16;;;;;;;1.60;1.00;;;13.80;98.20;;;;;;4985345;28;20567;-77
2023/10/31 09:47:45;;;;;;;1.60;1.00;;;13.80;98.20;;;;;;4992726;28;20475;-77
2023/10/31 09:50:12;;;;;;;1.60;1.00;;;13.80;98.20;;;;;;4986341;28;20504;-78
2023/10/31 09:52:39;;;;;;;1.60;1.00;;;13.90;98.20;;;;;;4993189;28;21018;-78
2023/10/31 09:55:08;;;;;;;1.60;1.00;;;14.00;98.20;;;;;;4986289;28;20465;-78
2023/10/31 09:57:35;;;;;;;1.60;1.10;;;14.10;98.20;;;;;;4991708;28;20479;-78
2023/10/31 10:00:02;;;;;;;1.60;1.10;;;14.10;98.20;;;;;;4987872;28;20481;-78
2023/10/31 10:02:29;;;;;;;1.60;1.00;;;14.20;98.20;;;;;;4987466;28;20484;-78
2023/10/31 10:04:57;;;;;;;1.60;1.10;;;14.20;98.20;;;;;;4987093;28;21031;-78
2023/10/31 10:07:24;;;;;;;1.60;0.93;;;14.20;98.20;;;;;;4985497;28;20488;-78
2023/10/31 10:09:51;;;;;;;1.60;1.00;;;14.20;98.20;;;;;;4989862;28;20495;-81
2023/10/31 10:12:18;;;;;;;1.60;1.00;;;14.20;98.20;;;;;;4987119;28;20487;-77
2023/10/31 10:14:46;;;;;;;1.60;1.00;;;14.20;98.20;;;;;;4986404;28;20480;-78
2023/10/31 10:17:16;;;;;;;1.60;1.10;;;14.20;98.20;;;;;;4985131;28;20600;-77
2023/10/31 10:19:43;;;;;;;1.60;1.00;;;14.20;98.20;;;;;;4995302;28;20521;-78
2023/10/31 10:22:12;;;;;;;1.60;1.00;;;14.20;98.20;;;;;;4984012;28;20471;-78
2023/10/31 10:24:41;;;;;;;1.60;1.00;;;14.20;98.20;;;;;;4991349;28;20489;-81
2023/10/31 10:27:08;;;;;;;1.60;1.00;;;14.20;98.20;;;;;;4984203;28;20492;-77
2023/10/31 10:29:35;;;;;;;1.60;1.10;;;14.20;98.20;;;;;;4991842;28;20481;-79
2023/10/31 10:32:06;;;;;;;1.60;1.00;;;14.30;98.20;;;;;;4985587;28;20533;-78
2023/10/31 10:34:32;;;;;;;1.87;1.10;;;14.40;98.20;;;;;;4989582;28;20866;-78
2023/10/31 10:36:59;;;;;;;1.60;1.00;;;14.50;98.20;;;;;;4986739;28;20489;-78
2023/10/31 10:39:31;;;;;;;1.60;1.00;;;14.60;98.20;;;;;;4989551;28;20680;-79
2023/10/31 10:42:00;;;;;;;1.60;1.00;;;14.60;98.20;;;;;;4980776;28;20488;-78
2023/10/31 10:44:33;;;;;;;1.53;1.00;;;14.70;98.20;;;;;;4991524;28;21022;-78
2023/10/31 10:47:03;;;;;;;1.60;1.00;;;14.70;98.20;;;;;;4985703;28;20476;-78
2023/10/31 10:49:35;;;;;;;1.60;1.00;;;14.70;98.20;;;;;;4989444;28;20511;-78
2023/10/31 10:52:11;;;;;;;1.60;1.00;;;14.70;98.20;;;;;;4984355;28;20570;-78
2023/10/31 10:54:47;;;;;;;1.60;1.10;;;14.80;98.20;;;;;;4995395;28;20829;-78
2023/10/31 10:57:20;;;;;;;1.60;1.00;;;14.90;98.20;;;;;;4986320;28;20476;-78
2023/10/31 10:59:50;;;;;;;1.60;1.00;;;15.00;98.20;;;;;;4991640;28;20491;-78
2023/10/31 11:02:19;;;;;;;1.57;1.00;;;14.90;98.20;;;;;;4985375;28;20879;-78
2023/10/31 11:04:46;;;;;;;1.60;1.00;;;14.80;98.20;;;;;;4990034;28;21021;-78
2023/10/31 11:07:13;;;;;;;1.60;1.00;;;14.80;98.20;;;;;;4988234;28;20484;-78
2023/10/31 11:09:43;;;;;;;1.60;1.00;;;14.70;98.20;;;;;;4994549;28;20488;-77
2023/10/31 11:12:12;;;;;;;1.60;1.00;;;14.80;98.20;;;;;;4984195;28;20619;-78
2023/10/31 11:14:40;;;;;;;1.60;1.00;;;14.70;98.20;;;;;;4988725;28;20990;-78
2023/10/31 11:17:12;;;;;;;1.60;1.10;;;14.70;98.20;;;;;;4981908;28;20864;-78
2023/10/31 11:19:39;;;;;;;1.60;1.00;;;14.60;98.20;;;;;;4989109;28;20559;-78
2023/10/31 11:22:07;;;;;;;1.60;1.00;;;14.60;98.20;;;;;;4983146;28;20838;-79
2023/10/31 11:24:37;;;;;;;1.60;0.93;;;14.50;98.20;;;;;;4992294;28;20864;-78
2023/10/31 11:27:08;;;;;;;1.60;1.10;;;14.50;98.20;;;;;;4986537;28;21054;-79
2023/10/31 11:29:37;;;;;;;1.53;1.00;;;14.50;98.20;;;;;;4996468;28;20485;-79
2023/10/31 11:32:04;;;;;;;1.53;1.00;;;14.50;98.20;;;;;;4983354;28;20479;-79
2023/10/31 11:34:31;;;;;;;1.57;0.90;;;14.50;98.20;;;;;;4993572;28;20464;-79
2023/10/31 11:37:19;;;;;;;1.60;1.00;;;14.50;98.20;;;;;;4989527;28;20483;-79
2023/10/31 11:40:16;;;;;;;1.60;1.00;;;14.60;98.20;;;;;;4988283;28;20500;-78
2023/10/31 11:42:47;;;;;;;1.60;1.00;;;14.60;98.20;;;;;;4993885;28;20495;-78
2023/10/31 11:45:24;;;;;;;1.60;1.00;;;14.70;98.20;;;;;;4989540;28;20504;-78
2023/10/31 11:47:52;;;;;;;1.57;1.00;;;14.70;98.20;;;;;;4986910;28;20498;-78
2023/10/31 11:50:19;;;;;;;1.60;1.00;;;14.80;98.20;;;;;;4992596;28;20566;-78
2023/10/31 11:52:58;;;;;;;1.60;1.10;;;14.80;98.20;;;;;;4995507;28;20480;-80
2023/10/31 11:55:25;;;;;;;1.60;1.00;;;14.90;98.20;;;;;;4991912;28;20471;-77
2023/10/31 11:57:53;;;;;;;1.60;1.10;;;15.00;98.20;;;;;;4987869;28;21158;-76
2023/10/31 12:00:24;;;;;;;1.60;1.00;;;15.00;98.20;;;;;;4994490;28;20576;-77
2023/10/31 12:03:02;;;;;;;1.60;1.00;;;15.10;98.20;;;;;;4995001;28;20507;-77
2023/10/31 12:05:29;;;;;;;1.60;1.00;;;15.10;98.20;;;;;;4991084;28;20919;-77
2023/10/31 12:07:56;;;;;;;1.60;1.03;;;15.10;98.20;;;;;;4991948;28;20519;-77
2023/10/31 12:10:24;;;;;;;1.60;1.00;;;15.00;98.20;;;;;;4982896;28;20594;-78
2023/10/31 12:12:52;;;;;;;1.60;1.00;;;15.00;98.20;;;;;;4991387;28;20472;-78
2023/10/31 12:15:19;;;;;;;1.57;0.93;;;15.00;98.20;;;;;;4986426;28;21012;-78
2023/10/31 12:17:46;;;;;;;1.57;0.97;;;15.10;98.20;;;;;;4990098;28;20543;-78
2023/10/31 12:20:13;;;;;;;1.60;1.00;;;15.00;98.20;;;;;;4991221;28;20971;-77
2023/10/31 12:22:40;;;;;;;1.53;0.90;;;15.10;98.20;;;;;;4993346;28;20477;-77
2023/10/31 12:25:08;;;;;;;1.60;1.00;;;15.10;98.20;;;;;;4992737;28;20500;-78
2023/10/31 12:27:45;;;;;;;1.53;1.00;;;15.10;98.20;;;;;;4993030;28;20484;-78
2023/10/31 12:30:15;;;;;;;1.60;1.00;;;15.00;98.20;;;;;;4985786;28;20941;-77
2023/10/31 12:32:43;;;;;;;1.60;1.00;;;15.00;98.20;;;;;;4991231;28;20508;-78
2023/10/31 12:35:15;;;;;;;1.60;1.00;;;15.00;98.20;;;;;;4988232;28;20472;-77
2023/10/31 12:37:44;;;;;;;1.60;1.00;;;14.90;98.20;;;;;;4990382;28;20480;-78
2023/10/31 12:40:12;;;;;;;1.57;1.00;;;14.90;98.20;;;;;;4993895;28;20592;-77
2023/10/31 12:42:39;;;;;;;1.60;1.00;;;15.00;98.20;;;;;;4995248;28;20476;-79
2023/10/31 12:45:08;;;;;;;1.57;1.00;;;15.10;98.20;;;;;;4988659;28;20492;-79
2023/10/31 12:47:36;;;;;;;1.60;1.00;;;15.10;98.20;;;;;;4990647;28;20823;-78
2023/10/31 12:50:10;;;;;;;1.60;1.00;;;15.20;98.20;;;;;;4994027;28;20537;-79